ARA226 LIMC-DAAT
Flight info
| Callsign | ARA226 |
|---|---|
| Flight time | 4h 34m |
| Altitude | 35000 |
| Route | KEMMI DCT TORTU A9 AJO UT451 NEGAT DCT CIRTA UA605 CSO UM998 TOLGA/N0456F370 UM998 BOD/N0463F360 UG855 TMS |
| Aircraft | B737/M-SDE2E3FGHIRWXY/LB1 |
Departure
| Time | 2026-05-06 12:46 |
|---|---|
| Airport | Milan Malpensa International Airport (LIMC) |
Arrival
| Time | 2026-05-06 17:20 |
|---|---|
| Airport | Aguenar – Hadj Bey Akhamok Airport (DAAT) |
| Time | Latitude | Longitude | Altitude | Speed | Heading |
|---|---|---|---|---|---|
| 2026-05-06 12:27 | 45.62441 | 8.71994 | 727 ft | 0 kts | 81° |
| 2026-05-06 12:36 | 45.62441 | 8.71993 | 727 ft | 0 kts | 82° |
| 2026-05-06 12:37 | 45.62442 | 8.72003 | 728 ft | 4 kts | 81° |
| 2026-05-06 12:37 | 45.62437 | 8.72074 | 729 ft | 10 kts | 122° |
| 2026-05-06 12:37 | 45.62390 | 8.72108 | 726 ft | 7 kts | 170° |
| 2026-05-06 12:38 | 45.62307 | 8.72129 | 725 ft | 17 kts | 167° |
| 2026-05-06 12:38 | 45.62170 | 8.72167 | 724 ft | 24 kts | 171° |
| 2026-05-06 12:38 | 45.61995 | 8.72215 | 717 ft | 25 kts | 169° |
| 2026-05-06 12:38 | 45.61881 | 8.72245 | 716 ft | 11 kts | 169° |
| 2026-05-06 12:39 | 45.61789 | 8.72271 | 717 ft | 23 kts | 169° |
| 2026-05-06 12:39 | 45.61616 | 8.72315 | 710 ft | 25 kts | 170° |
| 2026-05-06 12:39 | 45.61469 | 8.72360 | 706 ft | 19 kts | 168° |
| 2026-05-06 12:39 | 45.61392 | 8.72398 | 700 ft | 4 kts | 133° |
| 2026-05-06 12:40 | 45.61386 | 8.72387 | 704 ft | 4 kts | 256° |
| 2026-05-06 12:40 | 45.61393 | 8.72306 | 705 ft | 11 kts | 258° |
| 2026-05-06 12:40 | 45.61363 | 8.72206 | 703 ft | 12 kts | 219° |
| 2026-05-06 12:40 | 45.61278 | 8.72210 | 695 ft | 16 kts | 170° |
| 2026-05-06 12:41 | 45.61140 | 8.72249 | 700 ft | 24 kts | 168° |
| 2026-05-06 12:41 | 45.61048 | 8.72298 | 697 ft | 0 kts | 108° |
| 2026-05-06 12:41 | 45.61037 | 8.72299 | 698 ft | 7 kts | 176° |
| 2026-05-06 12:41 | 45.60912 | 8.72312 | 695 ft | 23 kts | 170° |
| 2026-05-06 12:42 | 45.60754 | 8.72356 | 692 ft | 26 kts | 169° |
| 2026-05-06 12:42 | 45.60638 | 8.72513 | 693 ft | 25 kts | 98° |
| 2026-05-06 12:42 | 45.60622 | 8.72750 | 697 ft | 23 kts | 96° |
| 2026-05-06 12:42 | 45.60605 | 8.72978 | 698 ft | 24 kts | 97° |
| 2026-05-06 12:43 | 45.60606 | 8.73229 | 694 ft | 27 kts | 60° |
| 2026-05-06 12:43 | 45.60774 | 8.73355 | 695 ft | 29 kts | 21° |
| 2026-05-06 12:43 | 45.60978 | 8.73386 | 696 ft | 32 kts | 349° |
| 2026-05-06 12:43 | 45.61205 | 8.73324 | 695 ft | 34 kts | 349° |
| 2026-05-06 12:44 | 45.61446 | 8.73257 | 697 ft | 36 kts | 349° |
| 2026-05-06 12:44 | 45.61602 | 8.73222 | 702 ft | 12 kts | 22° |
| 2026-05-06 12:44 | 45.61628 | 8.73349 | 704 ft | 16 kts | 82° |
| 2026-05-06 12:44 | 45.61600 | 8.73516 | 695 ft | 20 kts | 119° |
| 2026-05-06 12:45 | 45.61618 | 8.73711 | 699 ft | 21 kts | 38° |
| 2026-05-06 12:45 | 45.61829 | 8.73680 | 705 ft | 61 kts | 350° |
| 2026-05-06 12:45 | 45.63482 | 8.73237 | 789 ft | 165 kts | 353° |
| 2026-05-06 12:46 | 45.64597 | 8.73066 | 1346 ft | 166 kts | 359° |
| 2026-05-06 12:46 | 45.65780 | 8.73040 | 1909 ft | 174 kts | 2° |
| 2026-05-06 12:46 | 45.66945 | 8.73508 | 2401 ft | 180 kts | 45° |
| 2026-05-06 12:46 | 45.67585 | 8.75117 | 2789 ft | 202 kts | 75° |
| 2026-05-06 12:47 | 45.68084 | 8.77036 | 3350 ft | 208 kts | 72° |
| 2026-05-06 12:47 | 45.68778 | 8.78882 | 3977 ft | 220 kts | 48° |
| 2026-05-06 12:47 | 45.69564 | 8.79876 | 4398 ft | 230 kts | 40° |
| 2026-05-06 12:47 | 45.70706 | 8.81194 | 5028 ft | 238 kts | 40° |
| 2026-05-06 12:48 | 45.71690 | 8.82357 | 5690 ft | 241 kts | 46° |
| 2026-05-06 12:48 | 45.72545 | 8.84439 | 6353 ft | 247 kts | 82° |
| 2026-05-06 12:48 | 45.72430 | 8.86809 | 7166 ft | 237 kts | 116° |
| 2026-05-06 12:48 | 45.71608 | 8.88862 | 7610 ft | 241 kts | 129° |
| 2026-05-06 12:49 | 45.70645 | 8.90700 | 7848 ft | 243 kts | 131° |
| 2026-05-06 12:49 | 45.69606 | 8.92620 | 7811 ft | 242 kts | 131° |
| 2026-05-06 12:49 | 45.68592 | 8.94544 | 8052 ft | 244 kts | 130° |
| 2026-05-06 12:49 | 45.67574 | 8.96495 | 8491 ft | 246 kts | 131° |
| 2026-05-06 12:50 | 45.66529 | 8.98436 | 8972 ft | 247 kts | 132° |
| 2026-05-06 12:50 | 45.65458 | 9.00371 | 9418 ft | 248 kts | 136° |
| 2026-05-06 12:50 | 45.64079 | 9.01783 | 9770 ft | 245 kts | 163° |
| 2026-05-06 12:50 | 45.62394 | 9.02152 | 10008 ft | 253 kts | 182° |
| 2026-05-06 12:51 | 45.60543 | 9.02123 | 10199 ft | 279 kts | 183° |
| 2026-05-06 12:51 | 45.58516 | 9.02049 | 10391 ft | 304 kts | 183° |
| 2026-05-06 12:51 | 45.56317 | 9.01963 | 10607 ft | 328 kts | 183° |
| 2026-05-06 12:51 | 45.53959 | 9.01873 | 10755 ft | 350 kts | 183° |
| 2026-05-06 12:52 | 45.51469 | 9.01785 | 11045 ft | 364 kts | 183° |
| 2026-05-06 12:52 | 45.48919 | 9.01703 | 11633 ft | 368 kts | 183° |
| 2026-05-06 12:52 | 45.46352 | 9.01624 | 12344 ft | 369 kts | 183° |
| 2026-05-06 12:52 | 45.43778 | 9.01548 | 13001 ft | 372 kts | 183° |
| 2026-05-06 12:53 | 45.41176 | 9.01473 | 13667 ft | 375 kts | 183° |
| 2026-05-06 12:53 | 45.38550 | 9.01396 | 14271 ft | 379 kts | 183° |
| 2026-05-06 12:53 | 45.35907 | 9.01319 | 14901 ft | 381 kts | 184° |
| 2026-05-06 12:53 | 45.34145 | 9.01268 | 15317 ft | 383 kts | 184° |
| 2026-05-06 12:54 | 45.31466 | 9.01190 | 15933 ft | 386 kts | 184° |
| 2026-05-06 12:54 | 45.28776 | 9.01112 | 16531 ft | 389 kts | 184° |
| 2026-05-06 12:54 | 45.26054 | 9.01033 | 17130 ft | 393 kts | 185° |
| 2026-05-06 12:54 | 45.23305 | 9.00953 | 17711 ft | 396 kts | 185° |
| 2026-05-06 12:55 | 45.20535 | 9.00873 | 18265 ft | 399 kts | 185° |
| 2026-05-06 12:55 | 45.17755 | 9.00793 | 18810 ft | 400 kts | 185° |
| 2026-05-06 12:55 | 45.14966 | 9.00714 | 19394 ft | 400 kts | 185° |
| 2026-05-06 12:55 | 45.12218 | 9.00636 | 19922 ft | 402 kts | 185° |
| 2026-05-06 12:56 | 45.09415 | 9.00555 | 20440 ft | 403 kts | 186° |
| 2026-05-06 12:56 | 45.06612 | 9.00475 | 20948 ft | 404 kts | 186° |
| 2026-05-06 12:56 | 45.03788 | 9.00394 | 21448 ft | 406 kts | 186° |
| 2026-05-06 12:56 | 45.00959 | 9.00313 | 21913 ft | 407 kts | 186° |
| 2026-05-06 12:57 | 44.98120 | 9.00231 | 22369 ft | 409 kts | 186° |
| 2026-05-06 12:57 | 44.95267 | 9.00150 | 22814 ft | 411 kts | 186° |
| 2026-05-06 12:57 | 44.92399 | 9.00067 | 23231 ft | 413 kts | 186° |
| 2026-05-06 12:57 | 44.89517 | 8.99985 | 23621 ft | 415 kts | 186° |
| 2026-05-06 12:58 | 44.86631 | 8.99903 | 24003 ft | 416 kts | 186° |
| 2026-05-06 12:58 | 44.83734 | 8.99820 | 24292 ft | 417 kts | 186° |
| 2026-05-06 12:58 | 44.80824 | 8.99737 | 24646 ft | 418 kts | 186° |
| 2026-05-06 12:58 | 44.77909 | 8.99655 | 24960 ft | 420 kts | 186° |
| 2026-05-06 12:59 | 44.75025 | 8.99574 | 25306 ft | 420 kts | 186° |
| 2026-05-06 12:59 | 44.72097 | 8.99492 | 25647 ft | 422 kts | 186° |
| 2026-05-06 12:59 | 44.69166 | 8.99410 | 26006 ft | 422 kts | 186° |
| 2026-05-06 12:59 | 44.66225 | 8.99326 | 26277 ft | 424 kts | 186° |
| 2026-05-06 13:00 | 44.63275 | 8.99242 | 26746 ft | 422 kts | 186° |
| 2026-05-06 13:00 | 44.60352 | 8.99164 | 27268 ft | 419 kts | 186° |
| 2026-05-06 13:00 | 44.57438 | 8.99083 | 27690 ft | 418 kts | 186° |
| 2026-05-06 13:00 | 44.54532 | 8.99000 | 28087 ft | 418 kts | 186° |
| 2026-05-06 13:01 | 44.51632 | 8.98919 | 28599 ft | 414 kts | 187° |
| 2026-05-06 13:01 | 44.48756 | 8.98840 | 29157 ft | 411 kts | 187° |
| 2026-05-06 13:01 | 44.45907 | 8.98760 | 29657 ft | 409 kts | 187° |
| 2026-05-06 13:01 | 44.43065 | 8.98683 | 30032 ft | 409 kts | 187° |
| 2026-05-06 13:02 | 44.40221 | 8.98604 | 30383 ft | 408 kts | 187° |
| 2026-05-06 13:02 | 44.37425 | 8.98525 | 30779 ft | 406 kts | 187° |
| 2026-05-06 13:02 | 44.34609 | 8.98444 | 31136 ft | 404 kts | 187° |
| 2026-05-06 13:02 | 44.31800 | 8.98364 | 31442 ft | 404 kts | 187° |
| 2026-05-06 13:03 | 44.28990 | 8.98284 | 31749 ft | 404 kts | 187° |
| 2026-05-06 13:03 | 44.26203 | 8.98205 | 32085 ft | 403 kts | 187° |
| 2026-05-06 13:03 | 44.23403 | 8.98127 | 32416 ft | 402 kts | 187° |
| 2026-05-06 13:03 | 44.20611 | 8.98049 | 32718 ft | 401 kts | 187° |
| 2026-05-06 13:04 | 44.17824 | 8.97972 | 33005 ft | 401 kts | 187° |
| 2026-05-06 13:04 | 44.15032 | 8.97894 | 33271 ft | 400 kts | 187° |
| 2026-05-06 13:04 | 44.12250 | 8.97816 | 33580 ft | 399 kts | 187° |
| 2026-05-06 13:04 | 44.09477 | 8.97740 | 33865 ft | 399 kts | 187° |
| 2026-05-06 13:05 | 44.06700 | 8.97662 | 34068 ft | 399 kts | 187° |
| 2026-05-06 13:05 | 44.03916 | 8.97584 | 34218 ft | 401 kts | 187° |
| 2026-05-06 13:05 | 44.01126 | 8.97505 | 34364 ft | 402 kts | 187° |
| 2026-05-06 13:05 | 43.98325 | 8.97427 | 34550 ft | 403 kts | 187° |
| 2026-05-06 13:06 | 43.95520 | 8.97350 | 34722 ft | 403 kts | 187° |
| 2026-05-06 13:06 | 43.92707 | 8.97272 | 34853 ft | 405 kts | 187° |
| 2026-05-06 13:06 | 43.89876 | 8.97194 | 34971 ft | 407 kts | 187° |
| 2026-05-06 13:06 | 43.87077 | 8.97116 | 35086 ft | 409 kts | 187° |
| 2026-05-06 13:07 | 43.84235 | 8.97038 | 35213 ft | 410 kts | 187° |
| 2026-05-06 13:07 | 43.81381 | 8.96960 | 35383 ft | 410 kts | 187° |
| 2026-05-06 13:07 | 43.78532 | 8.96883 | 35537 ft | 410 kts | 187° |
| 2026-05-06 13:07 | 43.75674 | 8.96804 | 35677 ft | 411 kts | 187° |
| 2026-05-06 13:08 | 43.72808 | 8.96726 | 35818 ft | 412 kts | 187° |
| 2026-05-06 13:08 | 43.67080 | 8.96569 | 35877 ft | 412 kts | 187° |
| 2026-05-06 13:09 | 43.61342 | 8.96413 | 35891 ft | 412 kts | 187° |
| 2026-05-06 13:09 | 43.55618 | 8.96257 | 35899 ft | 413 kts | 187° |
| 2026-05-06 13:10 | 43.49873 | 8.96101 | 35898 ft | 413 kts | 187° |
| 2026-05-06 13:10 | 43.44121 | 8.95944 | 35898 ft | 413 kts | 187° |
| 2026-05-06 13:11 | 43.38406 | 8.95772 | 35905 ft | 413 kts | 188° |
| 2026-05-06 13:11 | 43.32689 | 8.95163 | 35907 ft | 412 kts | 190° |
| 2026-05-06 13:12 | 43.26980 | 8.94478 | 35908 ft | 412 kts | 190° |
| 2026-05-06 13:12 | 43.21256 | 8.93834 | 35911 ft | 412 kts | 190° |
| 2026-05-06 13:13 | 43.15531 | 8.93162 | 35913 ft | 413 kts | 190° |
| 2026-05-06 13:13 | 43.09807 | 8.92482 | 35918 ft | 413 kts | 190° |
| 2026-05-06 13:14 | 43.04083 | 8.91807 | 35919 ft | 413 kts | 190° |
| 2026-05-06 13:14 | 42.98394 | 8.91139 | 35920 ft | 413 kts | 190° |
| 2026-05-06 13:15 | 42.92664 | 8.90468 | 35917 ft | 413 kts | 190° |
| 2026-05-06 13:15 | 42.86930 | 8.89806 | 35916 ft | 413 kts | 190° |
| 2026-05-06 13:16 | 42.81203 | 8.89147 | 35920 ft | 413 kts | 190° |
| 2026-05-06 13:16 | 42.75461 | 8.88579 | 35924 ft | 414 kts | 188° |
| 2026-05-06 13:17 | 42.69724 | 8.87975 | 35927 ft | 413 kts | 190° |
| 2026-05-06 13:17 | 42.63996 | 8.87289 | 35935 ft | 413 kts | 190° |
| 2026-05-06 13:18 | 42.58263 | 8.86610 | 35936 ft | 414 kts | 189° |
| 2026-05-06 13:18 | 42.52518 | 8.85944 | 35939 ft | 415 kts | 189° |
| 2026-05-06 13:19 | 42.46796 | 8.85286 | 35939 ft | 415 kts | 189° |
| 2026-05-06 13:19 | 42.41027 | 8.84626 | 35947 ft | 415 kts | 189° |
| 2026-05-06 13:20 | 42.35261 | 8.83964 | 35923 ft | 416 kts | 189° |
| 2026-05-06 13:20 | 42.29495 | 8.83302 | 35931 ft | 417 kts | 189° |
| 2026-05-06 13:21 | 42.23710 | 8.82643 | 35943 ft | 417 kts | 189° |
| 2026-05-06 13:21 | 42.17926 | 8.82000 | 35955 ft | 417 kts | 189° |
| 2026-05-06 13:22 | 42.12140 | 8.81372 | 35953 ft | 416 kts | 189° |
| 2026-05-06 13:22 | 42.06417 | 8.80739 | 35978 ft | 416 kts | 189° |
| 2026-05-06 13:23 | 42.00637 | 8.80091 | 35974 ft | 417 kts | 189° |
| 2026-05-06 13:23 | 41.94840 | 8.79450 | 35962 ft | 418 kts | 189° |
| 2026-05-06 13:24 | 41.89038 | 8.78811 | 35963 ft | 418 kts | 189° |
| 2026-05-06 13:24 | 41.83236 | 8.78173 | 35969 ft | 418 kts | 190° |
| 2026-05-06 13:24 | 41.80428 | 8.77366 | 35955 ft | 410 kts | 205° |
| 2026-05-06 13:25 | 41.77939 | 8.75567 | 35968 ft | 405 kts | 217° |
| 2026-05-06 13:25 | 41.74125 | 8.70108 | 35975 ft | 405 kts | 239° |
| 2026-05-06 13:26 | 41.71512 | 8.63470 | 35971 ft | 406 kts | 242° |
| 2026-05-06 13:26 | 41.68961 | 8.56716 | 35957 ft | 407 kts | 241° |
| 2026-05-06 13:27 | 41.66375 | 8.49993 | 35959 ft | 406 kts | 241° |
| 2026-05-06 13:27 | 41.63761 | 8.43294 | 35962 ft | 406 kts | 240° |
| 2026-05-06 13:28 | 41.61142 | 8.36621 | 35961 ft | 406 kts | 240° |
| 2026-05-06 13:28 | 41.58513 | 8.29941 | 35956 ft | 406 kts | 240° |
| 2026-05-06 13:29 | 41.55885 | 8.23276 | 35960 ft | 405 kts | 240° |
| 2026-05-06 13:29 | 41.53253 | 8.16615 | 35960 ft | 405 kts | 240° |
| 2026-05-06 13:30 | 41.50620 | 8.09969 | 35962 ft | 405 kts | 240° |
| 2026-05-06 13:30 | 41.47992 | 8.03347 | 35950 ft | 404 kts | 240° |
| 2026-05-06 13:31 | 41.45358 | 7.96722 | 35960 ft | 404 kts | 240° |
| 2026-05-06 13:31 | 41.42600 | 7.90280 | 35932 ft | 403 kts | 229° |
| 2026-05-06 13:32 | 41.38280 | 7.85585 | 35959 ft | 405 kts | 211° |
| 2026-05-06 13:32 | 41.35657 | 7.84175 | 35954 ft | 409 kts | 199° |
| 2026-05-06 13:32 | 41.32906 | 7.83187 | 35956 ft | 410 kts | 199° |
| 2026-05-06 13:33 | 41.27371 | 7.81298 | 35945 ft | 411 kts | 198° |
| 2026-05-06 13:33 | 41.21825 | 7.79389 | 35950 ft | 411 kts | 199° |
| 2026-05-06 13:34 | 41.16283 | 7.77446 | 35955 ft | 412 kts | 199° |
| 2026-05-06 13:34 | 41.10739 | 7.75488 | 35953 ft | 412 kts | 199° |
| 2026-05-06 13:35 | 41.05192 | 7.73527 | 35954 ft | 412 kts | 199° |
| 2026-05-06 13:35 | 40.99647 | 7.71569 | 35955 ft | 413 kts | 199° |
| 2026-05-06 13:36 | 40.94125 | 7.69624 | 35953 ft | 413 kts | 199° |
| 2026-05-06 13:36 | 40.88569 | 7.67670 | 35956 ft | 413 kts | 199° |
| 2026-05-06 13:37 | 40.83009 | 7.65719 | 35956 ft | 414 kts | 199° |
| 2026-05-06 13:37 | 40.77440 | 7.63768 | 35956 ft | 414 kts | 199° |
| 2026-05-06 13:38 | 40.71863 | 7.61818 | 35955 ft | 414 kts | 199° |
| 2026-05-06 13:38 | 40.66284 | 7.59869 | 35956 ft | 415 kts | 199° |
| 2026-05-06 13:39 | 40.60699 | 7.57923 | 35952 ft | 415 kts | 198° |
| 2026-05-06 13:39 | 40.55111 | 7.55978 | 35956 ft | 415 kts | 198° |
| 2026-05-06 13:40 | 40.49521 | 7.54037 | 35952 ft | 416 kts | 198° |
| 2026-05-06 13:40 | 40.43929 | 7.52098 | 35954 ft | 416 kts | 198° |
| 2026-05-06 13:41 | 40.38357 | 7.50169 | 35953 ft | 417 kts | 198° |
| 2026-05-06 13:41 | 40.32745 | 7.48230 | 35954 ft | 417 kts | 198° |
| 2026-05-06 13:42 | 40.27128 | 7.46292 | 35952 ft | 417 kts | 198° |
| 2026-05-06 13:42 | 40.22456 | 7.44683 | 35948 ft | 418 kts | 198° |
| 2026-05-06 13:43 | 40.16833 | 7.42749 | 35949 ft | 418 kts | 198° |
| 2026-05-06 13:43 | 40.11204 | 7.40817 | 35947 ft | 418 kts | 198° |
| 2026-05-06 13:44 | 40.05567 | 7.38885 | 35947 ft | 418 kts | 198° |
| 2026-05-06 13:44 | 39.99932 | 7.36957 | 35951 ft | 419 kts | 198° |
| 2026-05-06 13:45 | 39.94291 | 7.35030 | 35951 ft | 419 kts | 198° |
| 2026-05-06 13:45 | 39.85831 | 7.32147 | 35947 ft | 419 kts | 198° |
| 2026-05-06 13:46 | 39.80186 | 7.30228 | 35949 ft | 419 kts | 198° |
| 2026-05-06 13:46 | 39.74540 | 7.28310 | 35947 ft | 419 kts | 198° |
| 2026-05-06 13:47 | 39.68928 | 7.26409 | 35949 ft | 420 kts | 198° |
| 2026-05-06 13:47 | 39.63232 | 7.24481 | 35946 ft | 420 kts | 198° |
| 2026-05-06 13:48 | 39.57616 | 7.22584 | 35944 ft | 420 kts | 198° |
| 2026-05-06 13:48 | 39.51945 | 7.20672 | 35946 ft | 421 kts | 198° |
| 2026-05-06 13:49 | 39.46278 | 7.18764 | 35943 ft | 421 kts | 198° |
| 2026-05-06 13:49 | 39.40609 | 7.16859 | 35942 ft | 421 kts | 198° |
| 2026-05-06 13:50 | 39.34933 | 7.14954 | 35945 ft | 421 kts | 198° |
| 2026-05-06 13:50 | 39.29264 | 7.13055 | 35942 ft | 421 kts | 198° |
| 2026-05-06 13:51 | 39.23596 | 7.11159 | 35943 ft | 421 kts | 198° |
| 2026-05-06 13:51 | 39.17920 | 7.09264 | 35942 ft | 421 kts | 198° |
| 2026-05-06 13:52 | 39.12244 | 7.07372 | 35942 ft | 421 kts | 198° |
| 2026-05-06 13:52 | 39.06605 | 7.05495 | 35940 ft | 422 kts | 199° |
| 2026-05-06 13:53 | 39.00921 | 7.03608 | 35942 ft | 422 kts | 198° |
| 2026-05-06 13:53 | 38.95090 | 7.02414 | 35941 ft | 426 kts | 192° |
| 2026-05-06 13:54 | 38.89194 | 7.01499 | 35938 ft | 426 kts | 192° |
| 2026-05-06 13:54 | 38.83302 | 7.00576 | 35936 ft | 427 kts | 192° |
| 2026-05-06 13:55 | 38.77402 | 6.99632 | 35941 ft | 427 kts | 192° |
| 2026-05-06 13:55 | 38.71545 | 6.98686 | 35940 ft | 427 kts | 192° |
| 2026-05-06 13:56 | 38.65636 | 6.97731 | 35934 ft | 428 kts | 192° |
| 2026-05-06 13:56 | 38.59725 | 6.96777 | 35940 ft | 428 kts | 192° |
| 2026-05-06 13:57 | 38.53809 | 6.95825 | 35941 ft | 429 kts | 192° |
| 2026-05-06 13:57 | 38.47880 | 6.94872 | 35934 ft | 429 kts | 192° |
| 2026-05-06 13:58 | 38.41950 | 6.93921 | 35940 ft | 430 kts | 192° |
| 2026-05-06 13:58 | 38.36015 | 6.92970 | 35941 ft | 430 kts | 192° |
| 2026-05-06 13:59 | 38.30074 | 6.92020 | 35940 ft | 430 kts | 192° |
| 2026-05-06 13:59 | 38.24131 | 6.91071 | 35938 ft | 431 kts | 193° |
| 2026-05-06 14:00 | 38.18179 | 6.90123 | 35938 ft | 431 kts | 193° |
| 2026-05-06 14:00 | 38.12255 | 6.89180 | 35938 ft | 432 kts | 193° |
| 2026-05-06 14:01 | 38.06289 | 6.88233 | 35939 ft | 432 kts | 193° |
| 2026-05-06 14:01 | 38.00316 | 6.87286 | 35938 ft | 433 kts | 193° |
| 2026-05-06 14:02 | 37.94342 | 6.86340 | 35936 ft | 433 kts | 193° |
| 2026-05-06 14:02 | 37.88356 | 6.85394 | 35936 ft | 433 kts | 193° |
| 2026-05-06 14:03 | 37.82372 | 6.84450 | 35932 ft | 434 kts | 193° |
| 2026-05-06 14:03 | 37.76377 | 6.83505 | 35932 ft | 434 kts | 193° |
| 2026-05-06 14:04 | 37.70380 | 6.82562 | 35927 ft | 434 kts | 194° |
| 2026-05-06 14:04 | 37.64384 | 6.81620 | 35930 ft | 434 kts | 194° |
| 2026-05-06 14:05 | 37.58384 | 6.80679 | 35926 ft | 435 kts | 194° |
| 2026-05-06 14:05 | 37.52373 | 6.79738 | 35922 ft | 435 kts | 194° |
| 2026-05-06 14:06 | 37.46407 | 6.78806 | 35918 ft | 434 kts | 194° |
| 2026-05-06 14:06 | 37.40407 | 6.77870 | 35922 ft | 434 kts | 194° |
| 2026-05-06 14:07 | 37.34410 | 6.76936 | 35921 ft | 434 kts | 195° |
| 2026-05-06 14:07 | 37.28418 | 6.76004 | 35918 ft | 434 kts | 195° |
| 2026-05-06 14:08 | 37.22430 | 6.75075 | 35914 ft | 433 kts | 195° |
| 2026-05-06 14:08 | 37.16441 | 6.74146 | 35916 ft | 433 kts | 195° |
| 2026-05-06 14:09 | 37.10455 | 6.73220 | 35916 ft | 433 kts | 196° |
| 2026-05-06 14:09 | 37.04471 | 6.72295 | 35917 ft | 433 kts | 196° |
| 2026-05-06 14:10 | 36.98488 | 6.71372 | 35914 ft | 433 kts | 196° |
| 2026-05-06 14:10 | 36.92518 | 6.70454 | 35904 ft | 431 kts | 197° |
| 2026-05-06 14:11 | 36.86601 | 6.69544 | 35911 ft | 431 kts | 197° |
| 2026-05-06 14:11 | 36.80635 | 6.68630 | 35908 ft | 431 kts | 197° |
| 2026-05-06 14:12 | 36.74681 | 6.67717 | 35909 ft | 431 kts | 198° |
| 2026-05-06 14:12 | 36.68735 | 6.66804 | 35897 ft | 430 kts | 198° |
| 2026-05-06 14:13 | 36.62829 | 6.65902 | 35902 ft | 429 kts | 198° |
| 2026-05-06 14:13 | 36.56909 | 6.64998 | 35905 ft | 429 kts | 199° |
| 2026-05-06 14:14 | 36.50997 | 6.64097 | 35928 ft | 427 kts | 199° |
| 2026-05-06 14:14 | 36.45136 | 6.63203 | 35921 ft | 426 kts | 199° |
| 2026-05-06 14:15 | 36.39258 | 6.62312 | 35934 ft | 425 kts | 199° |
| 2026-05-06 14:15 | 36.33388 | 6.61421 | 35940 ft | 425 kts | 199° |
| 2026-05-06 14:16 | 36.27466 | 6.60765 | 35927 ft | 436 kts | 192° |
| 2026-05-06 14:16 | 36.21382 | 6.60953 | 35933 ft | 437 kts | 191° |
| 2026-05-06 14:17 | 36.15302 | 6.61191 | 35928 ft | 436 kts | 191° |
| 2026-05-06 14:17 | 36.09235 | 6.61400 | 35926 ft | 436 kts | 192° |
| 2026-05-06 14:18 | 36.03172 | 6.61585 | 35911 ft | 435 kts | 192° |
| 2026-05-06 14:18 | 35.97121 | 6.61765 | 35894 ft | 435 kts | 192° |
| 2026-05-06 14:19 | 35.91111 | 6.61943 | 35897 ft | 434 kts | 192° |
| 2026-05-06 14:19 | 35.85071 | 6.62122 | 35899 ft | 434 kts | 192° |
| 2026-05-06 14:20 | 35.79032 | 6.62301 | 35905 ft | 434 kts | 192° |
| 2026-05-06 14:20 | 35.73002 | 6.62479 | 35901 ft | 433 kts | 192° |
| 2026-05-06 14:21 | 35.66975 | 6.62658 | 35894 ft | 433 kts | 192° |
| 2026-05-06 14:21 | 35.60961 | 6.62836 | 35888 ft | 432 kts | 192° |
| 2026-05-06 14:22 | 35.54953 | 6.63013 | 35870 ft | 431 kts | 192° |
| 2026-05-06 14:22 | 35.48996 | 6.63189 | 35874 ft | 431 kts | 192° |
| 2026-05-06 14:23 | 35.43002 | 6.63364 | 35868 ft | 431 kts | 192° |
| 2026-05-06 14:23 | 35.36999 | 6.63540 | 35865 ft | 430 kts | 192° |
| 2026-05-06 14:24 | 35.31005 | 6.63715 | 35870 ft | 432 kts | 192° |
| 2026-05-06 14:24 | 35.24988 | 6.63889 | 35855 ft | 433 kts | 192° |
| 2026-05-06 14:25 | 35.18959 | 6.64066 | 35843 ft | 433 kts | 192° |
| 2026-05-06 14:25 | 35.12929 | 6.64243 | 35829 ft | 434 kts | 192° |
| 2026-05-06 14:26 | 35.06889 | 6.64419 | 35819 ft | 433 kts | 192° |
| 2026-05-06 14:26 | 35.00857 | 6.64595 | 35810 ft | 433 kts | 191° |
| 2026-05-06 14:27 | 34.94879 | 6.64770 | 35805 ft | 432 kts | 191° |
| 2026-05-06 14:27 | 34.88881 | 6.64943 | 35780 ft | 430 kts | 191° |
| 2026-05-06 14:28 | 34.82907 | 6.65121 | 35768 ft | 429 kts | 192° |
| 2026-05-06 14:28 | 34.76939 | 6.65289 | 35756 ft | 430 kts | 191° |
| 2026-05-06 14:29 | 34.70932 | 6.65467 | 35754 ft | 432 kts | 191° |
| 2026-05-06 14:29 | 34.64920 | 6.65649 | 35750 ft | 433 kts | 191° |
| 2026-05-06 14:30 | 34.58919 | 6.65831 | 35739 ft | 434 kts | 191° |
| 2026-05-06 14:30 | 34.53857 | 6.65984 | 35727 ft | 435 kts | 191° |
| 2026-05-06 14:31 | 34.47808 | 6.66167 | 35719 ft | 435 kts | 191° |
| 2026-05-06 14:31 | 34.41749 | 6.66349 | 35719 ft | 435 kts | 191° |
| 2026-05-06 14:32 | 34.35730 | 6.66529 | 35719 ft | 435 kts | 191° |
| 2026-05-06 14:32 | 34.29671 | 6.66710 | 35715 ft | 435 kts | 191° |
| 2026-05-06 14:33 | 34.23612 | 6.66890 | 35717 ft | 436 kts | 191° |
| 2026-05-06 14:33 | 34.17547 | 6.67071 | 35716 ft | 436 kts | 191° |
| 2026-05-06 14:34 | 34.11474 | 6.67251 | 35716 ft | 437 kts | 190° |
| 2026-05-06 14:34 | 34.05394 | 6.67431 | 35718 ft | 437 kts | 190° |
| 2026-05-06 14:35 | 33.99308 | 6.67611 | 35719 ft | 438 kts | 190° |
| 2026-05-06 14:35 | 33.93208 | 6.67791 | 35720 ft | 439 kts | 190° |
| 2026-05-06 14:36 | 33.87100 | 6.67972 | 35717 ft | 439 kts | 190° |
| 2026-05-06 14:36 | 33.80988 | 6.68152 | 35719 ft | 440 kts | 190° |
| 2026-05-06 14:37 | 33.74856 | 6.68333 | 35702 ft | 441 kts | 190° |
| 2026-05-06 14:37 | 33.68723 | 6.68514 | 35700 ft | 441 kts | 190° |
| 2026-05-06 14:38 | 33.62583 | 6.68695 | 35695 ft | 441 kts | 190° |
| 2026-05-06 14:38 | 33.56474 | 6.68874 | 35691 ft | 441 kts | 190° |
| 2026-05-06 14:39 | 33.50327 | 6.69054 | 35688 ft | 441 kts | 190° |
| 2026-05-06 14:39 | 33.44185 | 6.69234 | 35689 ft | 442 kts | 190° |
| 2026-05-06 14:40 | 33.38044 | 6.69414 | 35697 ft | 442 kts | 190° |
| 2026-05-06 14:40 | 33.31893 | 6.69593 | 35703 ft | 442 kts | 190° |
| 2026-05-06 14:41 | 33.25739 | 6.69772 | 35701 ft | 442 kts | 190° |
| 2026-05-06 14:41 | 33.19589 | 6.69951 | 35709 ft | 442 kts | 190° |
| 2026-05-06 14:42 | 33.13427 | 6.70129 | 35708 ft | 443 kts | 190° |
| 2026-05-06 14:42 | 33.07260 | 6.70308 | 35716 ft | 443 kts | 190° |
| 2026-05-06 14:43 | 33.01082 | 6.70487 | 35716 ft | 444 kts | 190° |
| 2026-05-06 14:43 | 32.94896 | 6.70666 | 35712 ft | 445 kts | 190° |
| 2026-05-06 14:44 | 32.88752 | 6.70844 | 35715 ft | 445 kts | 190° |
| 2026-05-06 14:45 | 32.79457 | 6.71112 | 35712 ft | 446 kts | 190° |
| 2026-05-06 14:45 | 32.73256 | 6.71291 | 35713 ft | 446 kts | 190° |
| 2026-05-06 14:46 | 32.67046 | 6.71469 | 35715 ft | 446 kts | 190° |
| 2026-05-06 14:46 | 32.60835 | 6.71648 | 35713 ft | 446 kts | 190° |
| 2026-05-06 14:47 | 32.54628 | 6.71827 | 35710 ft | 446 kts | 189° |
| 2026-05-06 14:47 | 32.48419 | 6.72004 | 35711 ft | 446 kts | 189° |
| 2026-05-06 14:48 | 32.42257 | 6.72180 | 35705 ft | 446 kts | 189° |
| 2026-05-06 14:48 | 32.36061 | 6.72357 | 35715 ft | 445 kts | 189° |
| 2026-05-06 14:49 | 32.29865 | 6.72534 | 35704 ft | 445 kts | 189° |
| 2026-05-06 14:49 | 32.23673 | 6.72710 | 35713 ft | 445 kts | 189° |
| 2026-05-06 14:50 | 32.17470 | 6.72886 | 35719 ft | 445 kts | 189° |
| 2026-05-06 14:50 | 32.11275 | 6.73062 | 35723 ft | 445 kts | 189° |
| 2026-05-06 14:51 | 32.05081 | 6.73238 | 35716 ft | 445 kts | 189° |
| 2026-05-06 14:51 | 31.98922 | 6.73412 | 35718 ft | 446 kts | 189° |
| 2026-05-06 14:52 | 31.92717 | 6.73587 | 35715 ft | 446 kts | 189° |
| 2026-05-06 14:52 | 31.86508 | 6.73763 | 35718 ft | 446 kts | 188° |
| 2026-05-06 14:53 | 31.80293 | 6.73938 | 35722 ft | 446 kts | 188° |
| 2026-05-06 14:53 | 31.74088 | 6.74113 | 35722 ft | 447 kts | 188° |
| 2026-05-06 14:54 | 31.67901 | 6.74287 | 35722 ft | 447 kts | 188° |
| 2026-05-06 14:54 | 31.61663 | 6.74462 | 35721 ft | 448 kts | 188° |
| 2026-05-06 14:55 | 31.55418 | 6.74636 | 35724 ft | 449 kts | 188° |
| 2026-05-06 14:55 | 31.49164 | 6.74811 | 35722 ft | 450 kts | 188° |
| 2026-05-06 14:56 | 31.42885 | 6.74986 | 35726 ft | 451 kts | 188° |
| 2026-05-06 14:56 | 31.36593 | 6.75162 | 35725 ft | 453 kts | 188° |
| 2026-05-06 14:57 | 31.30281 | 6.75338 | 35726 ft | 454 kts | 188° |
| 2026-05-06 14:57 | 31.24003 | 6.75513 | 35727 ft | 455 kts | 188° |
| 2026-05-06 14:58 | 31.17669 | 6.75691 | 35730 ft | 455 kts | 188° |
| 2026-05-06 14:58 | 31.11338 | 6.75867 | 35727 ft | 455 kts | 188° |
| 2026-05-06 14:59 | 31.05003 | 6.76043 | 35730 ft | 455 kts | 188° |
| 2026-05-06 14:59 | 30.98662 | 6.76219 | 35727 ft | 455 kts | 188° |
| 2026-05-06 15:00 | 30.92322 | 6.76394 | 35725 ft | 456 kts | 188° |
| 2026-05-06 15:00 | 30.85978 | 6.76569 | 35732 ft | 456 kts | 188° |
| 2026-05-06 15:01 | 30.79630 | 6.76744 | 35730 ft | 456 kts | 187° |
| 2026-05-06 15:01 | 30.73509 | 6.76924 | 35711 ft | 438 kts | 188° |
| 2026-05-06 15:02 | 30.67584 | 6.77102 | 35709 ft | 419 kts | 188° |
| 2026-05-06 15:02 | 30.61856 | 6.77262 | 35708 ft | 404 kts | 188° |
| 2026-05-06 15:03 | 30.56320 | 6.77411 | 35713 ft | 392 kts | 188° |
| 2026-05-06 15:03 | 30.50940 | 6.77555 | 35711 ft | 381 kts | 189° |
| 2026-05-06 15:04 | 30.45692 | 6.77695 | 35712 ft | 373 kts | 189° |
| 2026-05-06 15:04 | 30.40560 | 6.77834 | 35718 ft | 365 kts | 189° |
| 2026-05-06 15:05 | 30.35528 | 6.77969 | 35647 ft | 360 kts | 189° |
| 2026-05-06 15:05 | 30.30554 | 6.78099 | 35450 ft | 360 kts | 189° |
| 2026-05-06 15:05 | 30.28050 | 6.78164 | 35322 ft | 360 kts | 189° |
| 2026-05-06 15:06 | 30.25537 | 6.78231 | 35211 ft | 361 kts | 189° |
| 2026-05-06 15:06 | 30.20531 | 6.78367 | 35074 ft | 359 kts | 189° |
| 2026-05-06 15:07 | 30.15564 | 6.78505 | 34979 ft | 356 kts | 189° |
| 2026-05-06 15:07 | 30.10630 | 6.78639 | 34858 ft | 354 kts | 189° |
| 2026-05-06 15:08 | 30.05708 | 6.78772 | 34717 ft | 353 kts | 189° |
| 2026-05-06 15:08 | 30.00797 | 6.78904 | 34596 ft | 352 kts | 189° |
| 2026-05-06 15:09 | 29.95909 | 6.79037 | 34509 ft | 351 kts | 189° |
| 2026-05-06 15:09 | 29.91041 | 6.79170 | 34420 ft | 349 kts | 189° |
| 2026-05-06 15:10 | 29.86189 | 6.79301 | 34319 ft | 348 kts | 189° |
| 2026-05-06 15:10 | 29.81382 | 6.79431 | 34226 ft | 347 kts | 189° |
| 2026-05-06 15:11 | 29.76560 | 6.79561 | 34139 ft | 346 kts | 189° |
| 2026-05-06 15:11 | 29.71747 | 6.79690 | 34037 ft | 346 kts | 189° |
| 2026-05-06 15:12 | 29.66933 | 6.79820 | 33953 ft | 345 kts | 189° |
| 2026-05-06 15:12 | 29.62133 | 6.79950 | 33882 ft | 344 kts | 189° |
| 2026-05-06 15:13 | 29.57352 | 6.80079 | 33824 ft | 343 kts | 189° |
| 2026-05-06 15:13 | 29.52583 | 6.80207 | 33761 ft | 343 kts | 189° |
| 2026-05-06 15:14 | 29.47819 | 6.80334 | 33674 ft | 342 kts | 189° |
| 2026-05-06 15:14 | 29.43087 | 6.80461 | 33593 ft | 342 kts | 189° |
| 2026-05-06 15:15 | 29.38338 | 6.80588 | 33537 ft | 341 kts | 189° |
| 2026-05-06 15:15 | 29.33602 | 6.80716 | 33470 ft | 340 kts | 189° |
| 2026-05-06 15:16 | 29.28868 | 6.80842 | 33410 ft | 340 kts | 189° |
| 2026-05-06 15:16 | 29.24147 | 6.80968 | 33351 ft | 339 kts | 189° |
| 2026-05-06 15:17 | 29.19426 | 6.81095 | 33307 ft | 339 kts | 189° |
| 2026-05-06 15:17 | 29.14718 | 6.81221 | 33255 ft | 338 kts | 189° |
| 2026-05-06 15:18 | 29.10806 | 6.81325 | 33213 ft | 338 kts | 189° |
| 2026-05-06 15:18 | 29.06111 | 6.81449 | 33166 ft | 337 kts | 189° |
| 2026-05-06 15:19 | 29.01420 | 6.81575 | 33130 ft | 337 kts | 189° |
| 2026-05-06 15:19 | 28.96733 | 6.81700 | 33092 ft | 336 kts | 189° |
| 2026-05-06 15:20 | 28.92080 | 6.81822 | 33059 ft | 337 kts | 189° |
| 2026-05-06 15:20 | 28.87393 | 6.81947 | 33034 ft | 336 kts | 190° |
| 2026-05-06 15:21 | 28.82724 | 6.82072 | 33008 ft | 335 kts | 190° |
| 2026-05-06 15:21 | 28.78060 | 6.82197 | 32954 ft | 335 kts | 190° |
| 2026-05-06 15:22 | 28.73398 | 6.82318 | 32900 ft | 336 kts | 190° |
| 2026-05-06 15:22 | 28.68719 | 6.82441 | 32853 ft | 336 kts | 190° |
| 2026-05-06 15:23 | 28.64051 | 6.82565 | 32834 ft | 335 kts | 190° |
| 2026-05-06 15:23 | 28.59388 | 6.82689 | 32817 ft | 335 kts | 190° |
| 2026-05-06 15:24 | 28.54762 | 6.82811 | 32787 ft | 335 kts | 190° |
| 2026-05-06 15:24 | 28.50110 | 6.82933 | 32741 ft | 335 kts | 190° |
| 2026-05-06 15:25 | 28.45444 | 6.83056 | 32696 ft | 335 kts | 190° |
| 2026-05-06 15:25 | 28.40784 | 6.83178 | 32664 ft | 335 kts | 190° |
| 2026-05-06 15:26 | 28.36130 | 6.83301 | 32665 ft | 334 kts | 190° |
| 2026-05-06 15:26 | 28.31481 | 6.83424 | 32651 ft | 334 kts | 190° |
| 2026-05-06 15:27 | 28.26863 | 6.83544 | 32626 ft | 334 kts | 190° |
| 2026-05-06 15:27 | 28.22183 | 6.83667 | 32608 ft | 334 kts | 190° |
| 2026-05-06 15:28 | 28.17533 | 6.83789 | 32606 ft | 334 kts | 190° |
| 2026-05-06 15:28 | 28.12950 | 6.83782 | 32583 ft | 325 kts | 199° |
| 2026-05-06 15:29 | 28.08608 | 6.82718 | 32488 ft | 318 kts | 205° |
| 2026-05-06 15:29 | 28.04320 | 6.81523 | 32542 ft | 316 kts | 205° |
| 2026-05-06 15:30 | 28.00059 | 6.80348 | 32614 ft | 314 kts | 204° |
| 2026-05-06 15:30 | 27.95813 | 6.79189 | 32563 ft | 314 kts | 204° |
| 2026-05-06 15:31 | 27.91543 | 6.78030 | 32513 ft | 316 kts | 204° |
| 2026-05-06 15:31 | 27.87268 | 6.76876 | 32514 ft | 316 kts | 204° |
| 2026-05-06 15:32 | 27.80873 | 6.75155 | 32531 ft | 314 kts | 204° |
| 2026-05-06 15:32 | 27.76653 | 6.74021 | 32540 ft | 313 kts | 204° |
| 2026-05-06 15:33 | 27.72410 | 6.72880 | 32520 ft | 314 kts | 204° |
| 2026-05-06 15:33 | 27.68152 | 6.71736 | 32515 ft | 314 kts | 204° |
| 2026-05-06 15:34 | 27.63904 | 6.70597 | 32524 ft | 313 kts | 204° |
| 2026-05-06 15:34 | 27.59666 | 6.69462 | 32545 ft | 313 kts | 204° |
| 2026-05-06 15:35 | 27.55432 | 6.68328 | 32569 ft | 313 kts | 204° |
| 2026-05-06 15:35 | 27.51193 | 6.67192 | 32562 ft | 313 kts | 203° |
| 2026-05-06 15:36 | 27.46950 | 6.66058 | 32546 ft | 313 kts | 203° |
| 2026-05-06 15:36 | 27.42707 | 6.64924 | 32546 ft | 313 kts | 203° |
| 2026-05-06 15:37 | 27.38497 | 6.63801 | 32565 ft | 313 kts | 203° |
| 2026-05-06 15:37 | 27.34256 | 6.62670 | 32559 ft | 313 kts | 203° |
| 2026-05-06 15:38 | 27.30013 | 6.61538 | 32547 ft | 313 kts | 202° |
| 2026-05-06 15:38 | 27.25780 | 6.60411 | 32516 ft | 313 kts | 202° |
| 2026-05-06 15:39 | 27.21529 | 6.59279 | 32519 ft | 314 kts | 202° |
| 2026-05-06 15:39 | 27.17286 | 6.58151 | 32509 ft | 313 kts | 202° |
| 2026-05-06 15:40 | 27.13052 | 6.57027 | 32428 ft | 313 kts | 202° |
| 2026-05-06 15:40 | 27.08807 | 6.55899 | 32404 ft | 314 kts | 202° |
| 2026-05-06 15:41 | 27.04585 | 6.54778 | 32419 ft | 314 kts | 202° |
| 2026-05-06 15:41 | 27.00336 | 6.53652 | 32453 ft | 314 kts | 202° |
| 2026-05-06 15:42 | 26.96085 | 6.52527 | 32479 ft | 313 kts | 202° |
| 2026-05-06 15:42 | 26.91841 | 6.51403 | 32491 ft | 314 kts | 202° |
| 2026-05-06 15:43 | 26.87582 | 6.50276 | 32492 ft | 315 kts | 202° |
| 2026-05-06 15:43 | 26.83327 | 6.49152 | 32485 ft | 315 kts | 202° |
| 2026-05-06 15:44 | 26.79055 | 6.48024 | 32529 ft | 315 kts | 202° |
| 2026-05-06 15:44 | 26.74793 | 6.46899 | 32585 ft | 315 kts | 202° |
| 2026-05-06 15:45 | 26.70521 | 6.45772 | 32565 ft | 316 kts | 202° |
| 2026-05-06 15:45 | 26.66236 | 6.44643 | 32550 ft | 317 kts | 202° |
| 2026-05-06 15:46 | 26.61949 | 6.43515 | 32563 ft | 316 kts | 202° |
| 2026-05-06 15:46 | 26.57690 | 6.42395 | 32579 ft | 316 kts | 202° |
| 2026-05-06 15:47 | 26.53413 | 6.41271 | 32586 ft | 316 kts | 202° |
| 2026-05-06 15:47 | 26.49127 | 6.40145 | 32590 ft | 316 kts | 202° |
| 2026-05-06 15:48 | 26.44846 | 6.39022 | 32604 ft | 316 kts | 202° |
| 2026-05-06 15:48 | 26.40566 | 6.37899 | 32607 ft | 316 kts | 203° |
| 2026-05-06 15:49 | 26.36343 | 6.36793 | 32654 ft | 315 kts | 203° |
| 2026-05-06 15:49 | 26.32085 | 6.35679 | 32696 ft | 316 kts | 203° |
| 2026-05-06 15:50 | 26.29915 | 6.35106 | 32813 ft | 323 kts | 203° |
| 2026-05-06 15:50 | 26.27710 | 6.34525 | 33051 ft | 327 kts | 203° |
| 2026-05-06 15:50 | 26.25486 | 6.33943 | 33314 ft | 330 kts | 203° |
| 2026-05-06 15:50 | 26.23243 | 6.33356 | 33576 ft | 333 kts | 203° |
| 2026-05-06 15:51 | 26.20978 | 6.32765 | 33841 ft | 336 kts | 203° |
| 2026-05-06 15:51 | 26.18695 | 6.32170 | 34081 ft | 338 kts | 203° |
| 2026-05-06 15:51 | 26.16387 | 6.31567 | 34316 ft | 341 kts | 203° |
| 2026-05-06 15:51 | 26.14068 | 6.30962 | 34546 ft | 344 kts | 204° |
| 2026-05-06 15:52 | 26.11725 | 6.30352 | 34789 ft | 346 kts | 204° |
| 2026-05-06 15:52 | 26.09369 | 6.29738 | 35025 ft | 348 kts | 204° |
| 2026-05-06 15:52 | 26.07002 | 6.29122 | 35271 ft | 351 kts | 204° |
| 2026-05-06 15:52 | 26.04619 | 6.28501 | 35496 ft | 353 kts | 204° |
| 2026-05-06 15:53 | 26.02211 | 6.27873 | 35640 ft | 358 kts | 204° |
| 2026-05-06 15:53 | 25.99768 | 6.27233 | 35722 ft | 365 kts | 204° |
| 2026-05-06 15:53 | 25.94727 | 6.25927 | 35801 ft | 379 kts | 204° |
| 2026-05-06 15:54 | 25.89518 | 6.24585 | 35817 ft | 394 kts | 203° |
| 2026-05-06 15:54 | 25.84068 | 6.23189 | 35818 ft | 409 kts | 203° |
| 2026-05-06 15:55 | 25.78425 | 6.21746 | 35816 ft | 422 kts | 202° |
| 2026-05-06 15:55 | 25.72613 | 6.20262 | 35813 ft | 434 kts | 202° |
| 2026-05-06 15:56 | 25.66660 | 6.18744 | 35811 ft | 444 kts | 202° |
| 2026-05-06 15:56 | 25.60618 | 6.17209 | 35798 ft | 446 kts | 202° |
| 2026-05-06 15:57 | 25.54569 | 6.15674 | 35801 ft | 446 kts | 202° |
| 2026-05-06 15:57 | 25.48526 | 6.14137 | 35805 ft | 446 kts | 202° |
| 2026-05-06 15:58 | 25.42484 | 6.12600 | 35805 ft | 446 kts | 202° |
| 2026-05-06 15:58 | 25.36436 | 6.11063 | 35804 ft | 446 kts | 202° |
| 2026-05-06 15:59 | 25.30385 | 6.09527 | 35801 ft | 445 kts | 202° |
| 2026-05-06 15:59 | 25.24387 | 6.08005 | 35808 ft | 446 kts | 202° |
| 2026-05-06 16:00 | 25.18332 | 6.06470 | 35808 ft | 446 kts | 202° |
| 2026-05-06 16:00 | 25.12285 | 6.04939 | 35820 ft | 446 kts | 202° |
| 2026-05-06 16:01 | 25.06225 | 6.03406 | 35821 ft | 447 kts | 202° |
| 2026-05-06 16:01 | 25.00146 | 6.01870 | 35816 ft | 447 kts | 202° |
| 2026-05-06 16:02 | 24.94117 | 6.00348 | 35812 ft | 447 kts | 202° |
| 2026-05-06 16:02 | 24.88050 | 5.98819 | 35815 ft | 447 kts | 202° |
| 2026-05-06 16:03 | 24.81980 | 5.97290 | 35816 ft | 447 kts | 202° |
| 2026-05-06 16:03 | 24.75917 | 5.95765 | 35813 ft | 448 kts | 202° |
| 2026-05-06 16:04 | 24.69840 | 5.94236 | 35816 ft | 448 kts | 202° |
| 2026-05-06 16:04 | 24.63766 | 5.92711 | 35833 ft | 447 kts | 202° |
| 2026-05-06 16:05 | 24.57691 | 5.91187 | 35833 ft | 448 kts | 202° |
| 2026-05-06 16:05 | 24.51602 | 5.89659 | 35824 ft | 449 kts | 202° |
| 2026-05-06 16:06 | 24.46537 | 5.88391 | 35828 ft | 450 kts | 202° |
| 2026-05-06 16:06 | 24.40447 | 5.86867 | 35821 ft | 449 kts | 202° |
| 2026-05-06 16:07 | 24.34348 | 5.85348 | 35817 ft | 450 kts | 202° |
| 2026-05-06 16:07 | 24.28242 | 5.83822 | 35828 ft | 450 kts | 202° |
| 2026-05-06 16:08 | 24.22123 | 5.82293 | 35827 ft | 451 kts | 202° |
| 2026-05-06 16:08 | 24.16001 | 5.80766 | 35829 ft | 452 kts | 202° |
| 2026-05-06 16:09 | 24.09873 | 5.79242 | 35832 ft | 449 kts | 202° |
| 2026-05-06 16:09 | 24.06877 | 5.78504 | 35828 ft | 433 kts | 202° |
| 2026-05-06 16:09 | 24.03989 | 5.77796 | 35802 ft | 418 kts | 202° |
| 2026-05-06 16:10 | 24.01238 | 5.77123 | 35818 ft | 403 kts | 203° |
| 2026-05-06 16:10 | 23.98552 | 5.76464 | 35810 ft | 389 kts | 203° |
| 2026-05-06 16:10 | 23.95959 | 5.75825 | 35817 ft | 375 kts | 204° |
| 2026-05-06 16:10 | 23.93464 | 5.75208 | 35817 ft | 361 kts | 204° |
| 2026-05-06 16:11 | 23.91049 | 5.74609 | 35820 ft | 350 kts | 204° |
| 2026-05-06 16:11 | 23.88671 | 5.74011 | 35845 ft | 352 kts | 204° |
| 2026-05-06 16:11 | 23.83776 | 5.72761 | 35867 ft | 371 kts | 204° |
| 2026-05-06 16:12 | 23.78708 | 5.71493 | 35851 ft | 375 kts | 203° |
| 2026-05-06 16:12 | 23.73614 | 5.70239 | 35846 ft | 374 kts | 203° |
| 2026-05-06 16:13 | 23.68550 | 5.68993 | 35850 ft | 371 kts | 203° |
| 2026-05-06 16:13 | 23.63571 | 5.67766 | 35853 ft | 367 kts | 204° |
| 2026-05-06 16:14 | 23.58604 | 5.66540 | 35859 ft | 365 kts | 204° |
| 2026-05-06 16:14 | 23.53665 | 5.65320 | 35875 ft | 364 kts | 204° |
| 2026-05-06 16:15 | 23.48715 | 5.64097 | 35870 ft | 364 kts | 203° |
| 2026-05-06 16:15 | 23.43770 | 5.62877 | 35774 ft | 363 kts | 203° |
| 2026-05-06 16:16 | 23.41293 | 5.62266 | 34902 ft | 374 kts | 202° |
| 2026-05-06 16:16 | 23.38678 | 5.61607 | 33709 ft | 392 kts | 201° |
| 2026-05-06 16:16 | 23.35976 | 5.60935 | 32426 ft | 405 kts | 200° |
| 2026-05-06 16:16 | 23.33235 | 5.60259 | 31211 ft | 414 kts | 199° |
| 2026-05-06 16:17 | 23.30396 | 5.59565 | 30027 ft | 421 kts | 197° |
| 2026-05-06 16:17 | 23.27522 | 5.58865 | 28679 ft | 425 kts | 197° |
| 2026-05-06 16:17 | 23.24629 | 5.58161 | 27382 ft | 427 kts | 197° |
| 2026-05-06 16:17 | 23.21717 | 5.57453 | 26129 ft | 428 kts | 196° |
| 2026-05-06 16:18 | 23.18811 | 5.56743 | 24925 ft | 428 kts | 196° |
| 2026-05-06 16:18 | 23.15909 | 5.56032 | 23791 ft | 427 kts | 196° |
| 2026-05-06 16:18 | 23.13017 | 5.55324 | 22535 ft | 425 kts | 195° |
| 2026-05-06 16:18 | 23.10134 | 5.54617 | 21251 ft | 423 kts | 195° |
| 2026-05-06 16:19 | 23.07275 | 5.53916 | 20054 ft | 420 kts | 194° |
| 2026-05-06 16:19 | 23.04437 | 5.53222 | 18879 ft | 417 kts | 194° |
| 2026-05-06 16:19 | 23.01621 | 5.52532 | 17677 ft | 413 kts | 194° |
| 2026-05-06 16:19 | 22.98836 | 5.51850 | 16409 ft | 408 kts | 193° |
| 2026-05-06 16:20 | 22.96078 | 5.51175 | 15208 ft | 404 kts | 193° |
| 2026-05-06 16:20 | 22.93359 | 5.50489 | 14050 ft | 399 kts | 195° |
| 2026-05-06 16:20 | 22.90743 | 5.49517 | 12823 ft | 395 kts | 202° |
| 2026-05-06 16:20 | 22.88239 | 5.48324 | 11608 ft | 391 kts | 204° |
| 2026-05-06 16:21 | 22.85759 | 5.47142 | 10535 ft | 386 kts | 202° |
| 2026-05-06 16:21 | 22.83367 | 5.46069 | 10302 ft | 358 kts | 202° |
| 2026-05-06 16:21 | 22.81142 | 5.45098 | 10163 ft | 331 kts | 201° |
| 2026-05-06 16:21 | 22.79077 | 5.44195 | 10043 ft | 308 kts | 201° |
| 2026-05-06 16:22 | 22.77164 | 5.43360 | 10010 ft | 285 kts | 201° |
| 2026-05-06 16:22 | 22.75380 | 5.42582 | 10008 ft | 271 kts | 201° |
| 2026-05-06 16:22 | 22.73634 | 5.41822 | 10018 ft | 271 kts | 201° |
| 2026-05-06 16:22 | 22.71893 | 5.41064 | 10028 ft | 275 kts | 201° |
| 2026-05-06 16:23 | 22.70113 | 5.40289 | 10007 ft | 277 kts | 201° |
| 2026-05-06 16:23 | 22.68321 | 5.39510 | 9991 ft | 278 kts | 201° |
| 2026-05-06 16:23 | 22.66526 | 5.38732 | 9973 ft | 278 kts | 201° |
| 2026-05-06 16:23 | 22.64728 | 5.37952 | 9951 ft | 278 kts | 201° |
| 2026-05-06 16:24 | 22.62939 | 5.37176 | 9933 ft | 276 kts | 201° |
| 2026-05-06 16:24 | 22.61155 | 5.36403 | 9917 ft | 275 kts | 201° |
| 2026-05-06 16:24 | 22.59379 | 5.35636 | 9899 ft | 274 kts | 201° |
| 2026-05-06 16:24 | 22.57606 | 5.34870 | 9885 ft | 274 kts | 201° |
| 2026-05-06 16:25 | 22.55841 | 5.34106 | 9867 ft | 273 kts | 201° |
| 2026-05-06 16:25 | 22.54077 | 5.33343 | 9850 ft | 273 kts | 201° |
| 2026-05-06 16:25 | 22.52311 | 5.32583 | 9829 ft | 273 kts | 201° |
| 2026-05-06 16:25 | 22.50546 | 5.31821 | 9815 ft | 273 kts | 201° |
| 2026-05-06 16:26 | 22.48779 | 5.31058 | 9794 ft | 274 kts | 201° |
| 2026-05-06 16:26 | 22.47005 | 5.30296 | 9779 ft | 274 kts | 201° |
| 2026-05-06 16:26 | 22.45233 | 5.29535 | 9785 ft | 274 kts | 201° |
| 2026-05-06 16:26 | 22.43481 | 5.28780 | 9783 ft | 275 kts | 201° |
| 2026-05-06 16:27 | 22.41700 | 5.28014 | 9777 ft | 275 kts | 201° |
| 2026-05-06 16:27 | 22.39996 | 5.27283 | 9775 ft | 275 kts | 201° |
| 2026-05-06 16:27 | 22.38215 | 5.26519 | 9774 ft | 275 kts | 201° |
| 2026-05-06 16:27 | 22.36432 | 5.25755 | 9770 ft | 276 kts | 201° |
| 2026-05-06 16:28 | 22.34650 | 5.24989 | 9769 ft | 276 kts | 201° |
| 2026-05-06 16:28 | 22.32866 | 5.24224 | 9766 ft | 276 kts | 201° |
| 2026-05-06 16:28 | 22.31083 | 5.23459 | 9765 ft | 276 kts | 201° |
| 2026-05-06 16:28 | 22.29300 | 5.22695 | 9767 ft | 276 kts | 201° |
| 2026-05-06 16:29 | 22.27516 | 5.21930 | 9764 ft | 276 kts | 201° |
| 2026-05-06 16:29 | 22.25732 | 5.21167 | 9759 ft | 276 kts | 201° |
| 2026-05-06 16:29 | 22.23945 | 5.20403 | 9763 ft | 276 kts | 201° |
| 2026-05-06 16:29 | 22.22162 | 5.19640 | 9761 ft | 276 kts | 201° |
| 2026-05-06 16:30 | 22.20378 | 5.18875 | 9758 ft | 276 kts | 201° |
| 2026-05-06 16:30 | 22.19199 | 5.18370 | 9759 ft | 276 kts | 201° |
| 2026-05-06 16:30 | 22.16833 | 5.17359 | 9753 ft | 276 kts | 201° |
| 2026-05-06 16:30 | 22.15044 | 5.16593 | 9753 ft | 276 kts | 201° |
| 2026-05-06 16:31 | 22.13259 | 5.15828 | 9752 ft | 276 kts | 202° |
| 2026-05-06 16:31 | 22.11469 | 5.15064 | 9749 ft | 277 kts | 201° |
| 2026-05-06 16:31 | 22.09678 | 5.14298 | 9746 ft | 277 kts | 201° |
| 2026-05-06 16:31 | 22.07888 | 5.13535 | 9754 ft | 277 kts | 201° |
| 2026-05-06 16:32 | 22.06096 | 5.12771 | 9752 ft | 277 kts | 201° |
| 2026-05-06 16:32 | 22.04300 | 5.12003 | 9753 ft | 277 kts | 201° |
| 2026-05-06 16:32 | 22.02506 | 5.11239 | 9744 ft | 277 kts | 201° |
| 2026-05-06 16:32 | 22.00712 | 5.10473 | 9749 ft | 277 kts | 201° |
| 2026-05-06 16:33 | 21.98916 | 5.09705 | 9751 ft | 277 kts | 201° |
| 2026-05-06 16:33 | 21.97120 | 5.08937 | 9746 ft | 278 kts | 201° |
| 2026-05-06 16:33 | 21.95325 | 5.08168 | 9745 ft | 278 kts | 201° |
| 2026-05-06 16:34 | 21.91768 | 5.06642 | 9755 ft | 283 kts | 201° |
| 2026-05-06 16:34 | 21.89962 | 5.05865 | 9749 ft | 279 kts | 201° |
| 2026-05-06 16:34 | 21.88171 | 5.05058 | 9736 ft | 279 kts | 210° |
| 2026-05-06 16:34 | 21.86853 | 5.03608 | 9725 ft | 271 kts | 245° |
| 2026-05-06 16:35 | 21.86530 | 5.01626 | 9751 ft | 283 kts | 277° |
| 2026-05-06 16:35 | 21.87104 | 4.99500 | 9742 ft | 317 kts | 296° |
| 2026-05-06 16:35 | 21.88376 | 4.97398 | 9729 ft | 346 kts | 312° |
| 2026-05-06 16:35 | 21.90231 | 4.95757 | 9704 ft | 353 kts | 333° |
| 2026-05-06 16:36 | 21.92582 | 4.95075 | 9715 ft | 353 kts | 359° |
| 2026-05-06 16:36 | 21.94961 | 4.95615 | 9704 ft | 351 kts | 26° |
| 2026-05-06 16:36 | 21.96815 | 4.97276 | 9707 ft | 350 kts | 54° |
| 2026-05-06 16:36 | 21.97734 | 4.99674 | 9722 ft | 351 kts | 82° |
| 2026-05-06 16:37 | 21.97507 | 5.02271 | 9733 ft | 353 kts | 109° |
| 2026-05-06 16:37 | 21.96181 | 5.04477 | 9722 ft | 356 kts | 137° |
| 2026-05-06 16:37 | 21.94044 | 5.05789 | 9726 ft | 358 kts | 164° |
| 2026-05-06 16:37 | 21.91573 | 5.05920 | 9731 ft | 359 kts | 189° |
| 2026-05-06 16:38 | 21.89141 | 5.05271 | 9728 ft | 360 kts | 197° |
| 2026-05-06 16:38 | 21.86770 | 5.04387 | 9706 ft | 360 kts | 200° |
| 2026-05-06 16:38 | 21.84458 | 5.03443 | 9705 ft | 361 kts | 201° |
| 2026-05-06 16:38 | 21.82122 | 5.02461 | 9714 ft | 360 kts | 201° |
| 2026-05-06 16:39 | 21.79789 | 5.01471 | 9710 ft | 360 kts | 201° |
| 2026-05-06 16:39 | 21.77462 | 5.00481 | 9708 ft | 359 kts | 201° |
| 2026-05-06 16:39 | 21.75138 | 4.99491 | 9716 ft | 359 kts | 201° |
| 2026-05-06 16:39 | 21.72819 | 4.98503 | 9711 ft | 359 kts | 201° |
| 2026-05-06 16:40 | 21.70518 | 4.97522 | 9718 ft | 352 kts | 201° |
| 2026-05-06 16:40 | 21.68257 | 4.96559 | 9705 ft | 348 kts | 201° |
| 2026-05-06 16:40 | 21.65998 | 4.95597 | 9717 ft | 351 kts | 201° |
| 2026-05-06 16:40 | 21.63720 | 4.94626 | 9727 ft | 352 kts | 201° |
| 2026-05-06 16:41 | 21.61442 | 4.93656 | 9720 ft | 353 kts | 201° |
| 2026-05-06 16:41 | 21.59158 | 4.92683 | 9705 ft | 353 kts | 201° |
| 2026-05-06 16:41 | 21.56875 | 4.91712 | 9701 ft | 352 kts | 201° |
| 2026-05-06 16:41 | 21.54600 | 4.90743 | 9703 ft | 351 kts | 201° |
| 2026-05-06 16:42 | 21.52332 | 4.89778 | 9711 ft | 350 kts | 201° |
| 2026-05-06 16:42 | 21.50068 | 4.88814 | 9712 ft | 350 kts | 201° |
| 2026-05-06 16:42 | 21.47804 | 4.87851 | 9705 ft | 350 kts | 201° |
| 2026-05-06 16:42 | 21.45546 | 4.86890 | 9710 ft | 349 kts | 201° |
| 2026-05-06 16:43 | 21.43287 | 4.85929 | 9708 ft | 349 kts | 201° |
| 2026-05-06 16:43 | 21.41056 | 4.84980 | 9708 ft | 350 kts | 201° |
| 2026-05-06 16:43 | 21.38788 | 4.84016 | 9707 ft | 350 kts | 201° |
| 2026-05-06 16:43 | 21.36526 | 4.83055 | 9704 ft | 350 kts | 201° |
| 2026-05-06 16:44 | 21.34258 | 4.82090 | 9701 ft | 350 kts | 201° |
| 2026-05-06 16:44 | 21.31996 | 4.81129 | 9705 ft | 350 kts | 201° |
| 2026-05-06 16:44 | 21.29732 | 4.80167 | 9702 ft | 350 kts | 201° |
| 2026-05-06 16:44 | 21.27468 | 4.79205 | 9698 ft | 350 kts | 201° |
| 2026-05-06 16:45 | 21.25200 | 4.78241 | 9708 ft | 350 kts | 201° |
| 2026-05-06 16:45 | 21.22934 | 4.77279 | 9705 ft | 350 kts | 201° |
| 2026-05-06 16:45 | 21.20663 | 4.76314 | 9701 ft | 350 kts | 201° |
| 2026-05-06 16:45 | 21.18394 | 4.75351 | 9704 ft | 350 kts | 201° |
| 2026-05-06 16:46 | 21.16280 | 4.74147 | 9685 ft | 352 kts | 220° |
| 2026-05-06 16:46 | 21.14809 | 4.72077 | 9693 ft | 353 kts | 245° |
| 2026-05-06 16:46 | 21.14334 | 4.69517 | 9706 ft | 355 kts | 271° |
| 2026-05-06 16:46 | 21.14952 | 4.66968 | 9706 ft | 358 kts | 297° |
| 2026-05-06 16:47 | 21.16549 | 4.64943 | 9710 ft | 360 kts | 323° |
| 2026-05-06 16:47 | 21.18815 | 4.63843 | 9715 ft | 361 kts | 349° |
| 2026-05-06 16:47 | 21.21314 | 4.63855 | 9723 ft | 361 kts | 10° |
| 2026-05-06 16:47 | 21.23758 | 4.64486 | 9701 ft | 362 kts | 15° |
| 2026-05-06 16:48 | 21.26185 | 4.65231 | 9704 ft | 362 kts | 17° |
| 2026-05-06 16:48 | 21.28601 | 4.65995 | 9700 ft | 362 kts | 17° |
| 2026-05-06 16:48 | 21.31015 | 4.66767 | 9696 ft | 361 kts | 17° |
| 2026-05-06 16:48 | 21.33423 | 4.67540 | 9700 ft | 361 kts | 17° |
| 2026-05-06 16:49 | 21.35830 | 4.68314 | 9702 ft | 361 kts | 17° |
| 2026-05-06 16:49 | 21.38237 | 4.69090 | 9707 ft | 361 kts | 17° |
| 2026-05-06 16:49 | 21.40642 | 4.69866 | 9703 ft | 361 kts | 17° |
| 2026-05-06 16:49 | 21.43011 | 4.70632 | 9711 ft | 361 kts | 17° |
| 2026-05-06 16:50 | 21.45414 | 4.71409 | 9699 ft | 361 kts | 17° |
| 2026-05-06 16:50 | 21.47818 | 4.72186 | 9709 ft | 361 kts | 17° |
| 2026-05-06 16:50 | 21.50219 | 4.72964 | 9717 ft | 361 kts | 17° |
| 2026-05-06 16:50 | 21.51844 | 4.73490 | 9706 ft | 361 kts | 17° |
| 2026-05-06 16:51 | 21.55024 | 4.74520 | 9708 ft | 361 kts | 17° |
| 2026-05-06 16:51 | 21.57428 | 4.75299 | 9710 ft | 361 kts | 17° |
| 2026-05-06 16:51 | 21.59830 | 4.76079 | 9710 ft | 361 kts | 17° |
| 2026-05-06 16:51 | 21.62235 | 4.76859 | 9707 ft | 361 kts | 17° |
| 2026-05-06 16:52 | 21.64635 | 4.77638 | 9712 ft | 361 kts | 17° |
| 2026-05-06 16:52 | 21.67041 | 4.78419 | 9723 ft | 361 kts | 17° |
| 2026-05-06 16:52 | 21.69447 | 4.79201 | 9712 ft | 361 kts | 17° |
| 2026-05-06 16:52 | 21.71850 | 4.79990 | 9706 ft | 361 kts | 19° |
| 2026-05-06 16:53 | 21.74204 | 4.80914 | 9711 ft | 357 kts | 21° |
| 2026-05-06 16:53 | 21.76484 | 4.81877 | 9707 ft | 348 kts | 21° |
| 2026-05-06 16:53 | 21.78718 | 4.82835 | 9709 ft | 345 kts | 22° |
| 2026-05-06 16:53 | 21.80946 | 4.83797 | 9719 ft | 346 kts | 22° |
| 2026-05-06 16:54 | 21.83184 | 4.84770 | 9721 ft | 348 kts | 22° |
| 2026-05-06 16:54 | 21.84674 | 4.85419 | 9719 ft | 349 kts | 22° |
| 2026-05-06 16:54 | 21.86922 | 4.86402 | 9715 ft | 347 kts | 22° |
| 2026-05-06 16:54 | 21.89145 | 4.87378 | 9711 ft | 343 kts | 22° |
| 2026-05-06 16:55 | 21.92066 | 4.88665 | 9717 ft | 342 kts | 22° |
| 2026-05-06 16:55 | 21.94278 | 4.89643 | 9724 ft | 345 kts | 22° |
| 2026-05-06 16:55 | 21.96508 | 4.90632 | 9721 ft | 347 kts | 22° |
| 2026-05-06 16:55 | 21.98729 | 4.91620 | 9718 ft | 343 kts | 22° |
| 2026-05-06 16:56 | 22.00213 | 4.92282 | 9715 ft | 342 kts | 22° |
| 2026-05-06 16:56 | 22.02409 | 4.93266 | 9724 ft | 341 kts | 22° |
| 2026-05-06 16:56 | 22.04573 | 4.94239 | 9725 ft | 342 kts | 22° |
| 2026-05-06 16:56 | 22.06790 | 4.95239 | 9726 ft | 342 kts | 22° |
| 2026-05-06 16:57 | 22.08988 | 4.96232 | 9723 ft | 342 kts | 22° |
| 2026-05-06 16:57 | 22.11162 | 4.97214 | 9726 ft | 344 kts | 22° |
| 2026-05-06 16:57 | 22.13377 | 4.98219 | 9736 ft | 347 kts | 22° |
| 2026-05-06 16:57 | 22.15600 | 4.99229 | 9727 ft | 345 kts | 22° |
| 2026-05-06 16:58 | 22.17800 | 5.00231 | 9728 ft | 343 kts | 22° |
| 2026-05-06 16:58 | 22.20000 | 5.01236 | 9726 ft | 343 kts | 22° |
| 2026-05-06 16:58 | 22.22195 | 5.02242 | 9736 ft | 343 kts | 22° |
| 2026-05-06 16:58 | 22.24400 | 5.03235 | 9732 ft | 342 kts | 19° |
| 2026-05-06 16:59 | 22.26626 | 5.03999 | 9727 ft | 329 kts | 15° |
| 2026-05-06 16:59 | 22.28778 | 5.04627 | 9721 ft | 310 kts | 14° |
| 2026-05-06 16:59 | 22.30806 | 5.05205 | 9715 ft | 293 kts | 14° |
| 2026-05-06 16:59 | 22.32718 | 5.05762 | 9700 ft | 278 kts | 14° |
| 2026-05-06 17:00 | 22.34557 | 5.06313 | 9425 ft | 273 kts | 14° |
| 2026-05-06 17:00 | 22.36379 | 5.06872 | 9066 ft | 272 kts | 14° |
| 2026-05-06 17:00 | 22.38204 | 5.07439 | 8638 ft | 273 kts | 15° |
| 2026-05-06 17:00 | 22.40025 | 5.08011 | 8294 ft | 271 kts | 15° |
| 2026-05-06 17:01 | 22.41825 | 5.08582 | 7947 ft | 270 kts | 15° |
| 2026-05-06 17:01 | 22.43621 | 5.09154 | 7654 ft | 267 kts | 15° |
| 2026-05-06 17:01 | 22.45398 | 5.09723 | 7321 ft | 266 kts | 15° |
| 2026-05-06 17:01 | 22.47150 | 5.10284 | 6945 ft | 266 kts | 14° |
| 2026-05-06 17:02 | 22.48891 | 5.10844 | 6835 ft | 256 kts | 15° |
| 2026-05-06 17:02 | 22.50562 | 5.11382 | 6780 ft | 245 kts | 14° |
| 2026-05-06 17:02 | 22.52158 | 5.11896 | 6764 ft | 233 kts | 15° |
| 2026-05-06 17:02 | 22.53665 | 5.12383 | 6761 ft | 220 kts | 15° |
| 2026-05-06 17:03 | 22.55090 | 5.12842 | 6754 ft | 209 kts | 15° |
| 2026-05-06 17:03 | 22.56473 | 5.13286 | 6781 ft | 206 kts | 14° |
| 2026-05-06 17:03 | 22.57878 | 5.13738 | 6783 ft | 215 kts | 14° |
| 2026-05-06 17:03 | 22.59327 | 5.14205 | 6807 ft | 220 kts | 14° |
| 2026-05-06 17:04 | 22.60795 | 5.14678 | 6800 ft | 220 kts | 15° |
| 2026-05-06 17:04 | 22.62263 | 5.15153 | 6804 ft | 219 kts | 14° |
| 2026-05-06 17:04 | 22.63716 | 5.15621 | 6811 ft | 217 kts | 14° |
| 2026-05-06 17:04 | 22.65148 | 5.16082 | 6819 ft | 214 kts | 14° |
| 2026-05-06 17:05 | 22.66560 | 5.16543 | 6832 ft | 210 kts | 14° |
| 2026-05-06 17:05 | 22.67963 | 5.16993 | 6856 ft | 213 kts | 14° |
| 2026-05-06 17:05 | 22.69394 | 5.17456 | 6884 ft | 215 kts | 14° |
| 2026-05-06 17:05 | 22.70832 | 5.17920 | 6878 ft | 216 kts | 14° |
| 2026-05-06 17:06 | 22.72273 | 5.18387 | 6884 ft | 216 kts | 15° |
| 2026-05-06 17:06 | 22.73708 | 5.18852 | 6903 ft | 217 kts | 14° |
| 2026-05-06 17:06 | 22.75137 | 5.19316 | 6895 ft | 217 kts | 14° |
| 2026-05-06 17:06 | 22.76584 | 5.19783 | 6916 ft | 216 kts | 14° |
| 2026-05-06 17:07 | 22.78033 | 5.20251 | 6926 ft | 218 kts | 15° |
| 2026-05-06 17:07 | 22.79494 | 5.20724 | 6921 ft | 220 kts | 14° |
| 2026-05-06 17:07 | 22.80966 | 5.21200 | 6947 ft | 221 kts | 14° |
| 2026-05-06 17:07 | 22.82442 | 5.21679 | 6926 ft | 222 kts | 14° |
| 2026-05-06 17:08 | 22.83915 | 5.22156 | 6938 ft | 220 kts | 14° |
| 2026-05-06 17:08 | 22.85383 | 5.22631 | 6915 ft | 220 kts | 14° |
| 2026-05-06 17:08 | 22.86840 | 5.23103 | 6925 ft | 217 kts | 15° |
| 2026-05-06 17:08 | 22.88282 | 5.23570 | 6920 ft | 215 kts | 14° |
| 2026-05-06 17:09 | 22.89716 | 5.24033 | 6915 ft | 215 kts | 15° |
| 2026-05-06 17:09 | 22.91144 | 5.24496 | 6951 ft | 215 kts | 15° |
| 2026-05-06 17:09 | 22.92585 | 5.24963 | 6861 ft | 218 kts | 13° |
| 2026-05-06 17:09 | 22.94161 | 5.24950 | 6608 ft | 242 kts | 341° |
| 2026-05-06 17:10 | 22.95628 | 5.23963 | 6525 ft | 257 kts | 315° |
| 2026-05-06 17:10 | 22.97010 | 5.22801 | 6466 ft | 252 kts | 342° |
| 2026-05-06 17:10 | 22.98715 | 5.22782 | 6458 ft | 251 kts | 18° |
| 2026-05-06 17:10 | 23.00108 | 5.23966 | 6481 ft | 266 kts | 54° |
| 2026-05-06 17:11 | 23.00633 | 5.25925 | 6507 ft | 279 kts | 86° |
| 2026-05-06 17:11 | 23.00792 | 5.28011 | 6472 ft | 275 kts | 65° |
| 2026-05-06 17:11 | 23.01747 | 5.29762 | 6496 ft | 270 kts | 52° |
| 2026-05-06 17:11 | 23.02762 | 5.31473 | 6514 ft | 269 kts | 57° |
| 2026-05-06 17:12 | 23.03580 | 5.33243 | 6506 ft | 252 kts | 63° |
| 2026-05-06 17:12 | 23.04198 | 5.34925 | 6479 ft | 234 kts | 68° |
| 2026-05-06 17:12 | 23.04694 | 5.36528 | 6487 ft | 215 kts | 70° |
| 2026-05-06 17:12 | 23.05058 | 5.38024 | 6489 ft | 194 kts | 71° |
| 2026-05-06 17:13 | 23.05386 | 5.39436 | 6513 ft | 196 kts | 72° |
| 2026-05-06 17:13 | 23.05598 | 5.40929 | 6537 ft | 201 kts | 75° |
| 2026-05-06 17:13 | 23.05726 | 5.42481 | 6494 ft | 206 kts | 85° |
| 2026-05-06 17:13 | 23.05921 | 5.44000 | 6526 ft | 206 kts | 75° |
| 2026-05-06 17:14 | 23.05959 | 5.45576 | 6529 ft | 210 kts | 96° |
| 2026-05-06 17:14 | 23.05593 | 5.47063 | 6529 ft | 206 kts | 94° |
| 2026-05-06 17:14 | 23.05670 | 5.48587 | 6555 ft | 204 kts | 85° |
| 2026-05-06 17:14 | 23.05452 | 5.50141 | 6554 ft | 212 kts | 109° |
| 2026-05-06 17:15 | 23.05075 | 5.51690 | 6522 ft | 212 kts | 99° |
| 2026-05-06 17:15 | 23.04509 | 5.53138 | 6478 ft | 209 kts | 138° |
| 2026-05-06 17:15 | 23.03244 | 5.53812 | 6517 ft | 208 kts | 172° |
| 2026-05-06 17:15 | 23.01762 | 5.53839 | 6529 ft | 217 kts | 181° |
| 2026-05-06 17:16 | 23.00327 | 5.53486 | 6530 ft | 212 kts | 212° |
| 2026-05-06 17:16 | 22.98987 | 5.52861 | 6537 ft | 210 kts | 196° |
| 2026-05-06 17:16 | 22.97590 | 5.52442 | 6518 ft | 208 kts | 214° |
| 2026-05-06 17:16 | 22.96283 | 5.51791 | 6554 ft | 210 kts | 207° |
| 2026-05-06 17:17 | 22.95019 | 5.51112 | 6595 ft | 196 kts | 203° |
| 2026-05-06 17:17 | 22.93793 | 5.50524 | 6548 ft | 189 kts | 218° |
| 2026-05-06 17:17 | 22.92625 | 5.49998 | 6609 ft | 180 kts | 195° |
| 2026-05-06 17:17 | 22.91490 | 5.49557 | 6532 ft | 172 kts | 200° |
| 2026-05-06 17:18 | 22.90394 | 5.49084 | 6295 ft | 167 kts | 205° |
| 2026-05-06 17:18 | 22.89327 | 5.48612 | 5998 ft | 163 kts | 206° |
| 2026-05-06 17:18 | 22.88303 | 5.48182 | 5824 ft | 154 kts | 202° |
| 2026-05-06 17:18 | 22.87279 | 5.47788 | 5640 ft | 158 kts | 215° |
| 2026-05-06 17:19 | 22.86299 | 5.47232 | 5487 ft | 161 kts | 200° |
| 2026-05-06 17:19 | 22.85260 | 5.46803 | 5305 ft | 159 kts | 200° |
| 2026-05-06 17:19 | 22.84231 | 5.46398 | 5032 ft | 154 kts | 200° |
| 2026-05-06 17:19 | 22.83229 | 5.45985 | 4703 ft | 156 kts | 199° |
| 2026-05-06 17:20 | 22.82224 | 5.45561 | 4520 ft | 154 kts | 199° |
| 2026-05-06 17:20 | 22.81340 | 5.45183 | 4485 ft | 115 kts | 202° |
| 2026-05-06 17:20 | 22.80735 | 5.44916 | 4475 ft | 72 kts | 206° |
| 2026-05-06 17:20 | 22.80496 | 5.44796 | 4474 ft | 3 kts | 188° |
| 2026-05-06 17:21 | 22.80495 | 5.44807 | 4474 ft | 3 kts | 71° |
| 2026-05-06 17:21 | 22.80565 | 5.44844 | 4474 ft | 19 kts | 21° |
| 2026-05-06 17:21 | 22.80664 | 5.44887 | 4478 ft | 24 kts | 22° |
| 2026-05-06 17:21 | 22.80823 | 5.44956 | 4475 ft | 27 kts | 22° |
| 2026-05-06 17:22 | 22.80993 | 5.45031 | 4479 ft | 25 kts | 22° |
| 2026-05-06 17:22 | 22.81156 | 5.45016 | 4483 ft | 24 kts | 341° |
| 2026-05-06 17:22 | 22.81292 | 5.44928 | 4481 ft | 23 kts | 319° |
| 2026-05-06 17:22 | 22.81348 | 5.44881 | 4482 ft | 1 kts | 2° |
| 2026-05-06 17:23 | 22.81349 | 5.44891 | 4482 ft | 0 kts | 87° |